createdAt,value
2022-09-07T00:01:37.021Z,100097.06
2022-09-07T00:04:04.095Z,100090.38
2022-09-07T00:06:31.059Z,100089.72
2022-09-07T00:08:58.608Z,100092.88
2022-09-07T00:11:25.150Z,100084.06
2022-09-07T00:13:51.646Z,100078.38
2022-09-07T00:16:20.539Z,100079.41
2022-09-07T00:18:47.214Z,100074.38
2022-09-07T00:21:14.885Z,100085.72
2022-09-07T00:23:41.562Z,100088.63
2022-09-07T00:26:10.263Z,100088.84
2022-09-07T00:28:37.362Z,100075.19
2022-09-07T00:31:04.372Z,100086.13
2022-09-07T00:33:31.247Z,100068.06
2022-09-07T00:35:58.553Z,100069.75
2022-09-07T00:38:25.167Z,100063.66
2022-09-07T00:40:51.782Z,100066.41
2022-09-07T00:43:29.051Z,100059.66
2022-09-07T00:45:55.595Z,100059.66
2022-09-07T00:48:23.836Z,100056.09
2022-09-07T00:50:53.804Z,100047.06
2022-09-07T00:53:23.016Z,100042.47
2022-09-07T00:55:50.795Z,100055.91
2022-09-07T00:58:19.198Z,100056.31
2022-09-07T01:00:47.001Z,100054.19
2022-09-07T01:03:15.978Z,100052.50
2022-09-07T01:05:51.892Z,100057.97
2022-09-07T01:08:18.600Z,100060.91
2022-09-07T01:10:46.824Z,100064.25
2022-09-07T01:13:15.130Z,100060.91
2022-09-07T01:15:44.674Z,100059.19
2022-09-07T01:18:19.769Z,100056.25
2022-09-07T01:20:50.804Z,100059.00
2022-09-07T01:23:40.344Z,100062.97
2022-09-07T01:26:06.832Z,100069.69
2022-09-07T01:28:34.385Z,100058.78
2022-09-07T01:31:09.531Z,100059.19
2022-09-07T01:33:48.016Z,100065.03
2022-09-07T01:36:14.468Z,100054.53
2022-09-07T01:38:40.946Z,100047.38
2022-09-07T01:41:11.508Z,100053.22
2022-09-07T01:44:04.613Z,100049.88
2022-09-07T01:46:37.368Z,100042.72
2022-09-07T01:49:10.329Z,100042.72
2022-09-07T01:51:38.882Z,100043.16
2022-09-07T01:54:14.535Z,100039.78
2022-09-07T01:56:43.615Z,100037.25
2022-09-07T01:59:14.783Z,100039.16
2022-09-07T02:01:47.039Z,100032.03
2022-09-07T02:04:19.440Z,100028.88
2022-09-07T02:06:50.992Z,100035.97
2022-09-07T02:09:23.534Z,100029.22
2022-09-07T02:11:50.427Z,100039.91
2022-09-07T02:14:24.921Z,100038.63
2022-09-07T02:16:58.470Z,100039.69
2022-09-07T02:19:26.912Z,100035.69
2022-09-07T02:21:59.371Z,100034.22
2022-09-07T02:24:29.036Z,100024.94
2022-09-07T02:26:55.984Z,100031.63
2022-09-07T02:29:22.513Z,100031.41
2022-09-07T02:31:51.232Z,100026.97
2022-09-07T02:34:18.310Z,100025.69
2022-09-07T02:36:47.035Z,100021.28
2022-09-07T02:39:13.587Z,100015.59
2022-09-07T02:41:44.285Z,100013.03
2022-09-07T02:44:14.128Z,100011.31
2022-09-07T02:46:58.722Z,100018.38
2022-09-07T02:49:34.300Z,100012.03
2022-09-07T02:52:19.540Z,100012.44
2022-09-07T02:55:04.505Z,100007.78
2022-09-07T02:57:37.566Z,100001.44
2022-09-07T03:00:11.102Z,100007.28
2022-09-07T03:02:43.400Z,100004.31
2022-09-07T03:05:16.761Z,100002.22
2022-09-07T03:07:50.101Z,99999.50
2022-09-07T03:10:17.633Z,100001.59
2022-09-07T03:12:48.931Z,99998.03
2022-09-07T03:15:17.048Z,99994.84
2022-09-07T03:17:45.285Z,100000.28
2022-09-07T03:20:12.358Z,100005.09
2022-09-07T03:22:39.194Z,100005.09
2022-09-07T03:25:06.038Z,99999.66
2022-09-07T03:27:33.088Z,100000.06
2022-09-07T03:29:59.966Z,100002.13
2022-09-07T03:32:30.377Z,99997.72
2022-09-07T03:34:56.881Z,99992.47
2022-09-07T03:37:23.370Z,99985.28
2022-09-07T03:39:50.012Z,99982.34
2022-09-07T03:42:16.574Z,99979.38
2022-09-07T03:44:43.050Z,99970.31
2022-09-07T03:47:09.606Z,99973.03
2022-09-07T03:49:36.094Z,99980.94
2022-09-07T03:52:02.887Z,99973.59
2022-09-07T03:54:29.430Z,99988.19
2022-09-07T03:56:55.943Z,99987.53
2022-09-07T03:59:22.524Z,99982.50
2022-09-07T04:01:49.563Z,99987.44
2022-09-07T04:04:16.113Z,99998.50
2022-09-07T04:06:42.682Z,99992.88
2022-09-07T04:09:11.921Z,99991.22
2022-09-07T04:11:39.196Z,99997.50
2022-09-07T04:14:06.085Z,99995.41
2022-09-07T04:16:32.683Z,99996.09
2022-09-07T04:18:59.527Z,99994.00
2022-09-07T04:21:28.259Z,99999.69
2022-09-07T04:23:54.868Z,99999.97
2022-09-07T04:26:25.840Z,99995.81
2022-09-07T04:28:52.642Z,100001.91
2022-09-07T04:31:19.518Z,99992.69
2022-09-07T04:33:46.767Z,99992.69
2022-09-07T04:36:13.345Z,99990.25
2022-09-07T04:38:40.154Z,99986.47
2022-09-07T04:41:09.436Z,99983.56
2022-09-07T04:43:36.374Z,99991.78
2022-09-07T04:46:06.608Z,99995.34
2022-09-07T04:48:33.295Z,99995.41
2022-09-07T04:51:06.280Z,99995.00
2022-09-07T04:53:33.704Z,99992.72
2022-09-07T04:56:00.271Z,99997.19
2022-09-07T04:58:27.085Z,99996.38
2022-09-07T05:00:54.103Z,99993.53
2022-09-07T05:03:20.969Z,99997.78
2022-09-07T05:05:47.455Z,100006.19
2022-09-07T05:08:13.991Z,99997.06
2022-09-07T05:10:40.505Z,100002.97
2022-09-07T05:13:07.060Z,100012.22
2022-09-07T05:15:33.805Z,100011.44
2022-09-07T05:18:00.294Z,100007.50
2022-09-07T05:20:26.919Z,100006.50
2022-09-07T05:22:59.823Z,100006.91
2022-09-07T05:25:27.741Z,100007.59
2022-09-07T05:27:54.327Z,100009.94
2022-09-07T05:33:10.659Z,100014.16
2022-09-07T05:35:37.277Z,100011.69
2022-09-07T05:38:03.796Z,100019.88
2022-09-07T05:40:31.812Z,100017.66
2022-09-07T05:42:58.555Z,100018.50
2022-09-07T05:45:25.143Z,100020.38
2022-09-07T05:47:51.629Z,100018.94
2022-09-07T05:50:18.171Z,100023.16
2022-09-07T05:52:46.125Z,100021.28
2022-09-07T05:55:28.996Z,100037.03
2022-09-07T05:57:56.265Z,100025.88
2022-09-07T06:00:22.843Z,100044.16
2022-09-07T06:02:49.467Z,100040.84
2022-09-07T06:05:16.133Z,100052.13
2022-09-07T06:07:42.659Z,100046.66
2022-09-07T06:12:55.768Z,100039.25
2022-09-07T06:15:22.447Z,100045.09
2022-09-07T06:17:48.928Z,100038.16
2022-09-07T06:20:15.510Z,100037.69
2022-09-07T06:22:42.053Z,100031.72
2022-09-07T06:25:08.790Z,100028.31
2022-09-07T06:27:35.527Z,100028.56
2022-09-07T06:30:02.198Z,100037.75
2022-09-07T06:32:44.582Z,100032.44
2022-09-07T06:35:11.636Z,100038.13
2022-09-07T06:37:38.433Z,100037.94
2022-09-07T06:40:05.518Z,100043.34
2022-09-07T06:42:32.132Z,100048.34
2022-09-07T06:44:58.963Z,100050.31
2022-09-07T06:47:25.477Z,100047.44
2022-09-07T06:49:51.973Z,100046.66
2022-09-07T06:52:18.511Z,100040.72
2022-09-07T06:55:01.053Z,100043.34
2022-09-07T06:57:28.109Z,100044.91
2022-09-07T06:59:54.681Z,100046.28
2022-09-07T07:02:21.197Z,100049.63
2022-09-07T07:04:47.919Z,100060.81
2022-09-07T07:07:14.565Z,100056.16
2022-09-07T07:09:41.757Z,100051.44
2022-09-07T07:12:08.525Z,100052.81
2022-09-07T07:14:38.415Z,100052.88
2022-09-07T07:17:07.825Z,100061.38
2022-09-07T07:19:34.382Z,100070.22
2022-09-07T07:24:47.801Z,100067.97
2022-09-07T07:27:14.353Z,100069.28
2022-09-07T07:29:40.854Z,100073.09
2022-09-07T07:32:07.403Z,100078.25
2022-09-07T07:34:34.182Z,100075.31
2022-09-07T07:37:00.801Z,100083.69
2022-09-07T07:42:13.866Z,100083.13
2022-09-07T07:44:40.361Z,100095.56
2022-09-07T07:47:06.980Z,100105.03
2022-09-07T07:49:33.834Z,100095.47
2022-09-07T07:54:46.928Z,100110.94
2022-09-07T07:57:13.890Z,100109.97
2022-09-07T07:59:40.457Z,100109.84
2022-09-07T08:02:08.909Z,100104.59
2022-09-07T08:04:36.063Z,100109.13
2022-09-07T08:07:09.155Z,100110.34
2022-09-07T08:09:38.109Z,100105.66
2022-09-07T08:12:04.591Z,100108.41
2022-09-07T08:14:31.144Z,100105.66
2022-09-07T08:16:57.715Z,100111.25
2022-09-07T08:19:24.173Z,100104.19
2022-09-07T08:21:50.632Z,100106.75
2022-09-07T08:24:17.090Z,100098.06
2022-09-07T08:26:43.591Z,100098.44
2022-09-07T08:29:10.041Z,100099.97
2022-09-07T08:31:36.936Z,100095.25
2022-09-07T08:34:03.470Z,100096.66
2022-09-07T08:36:31.901Z,100095.38
2022-09-07T08:38:58.516Z,100098.50
2022-09-07T08:41:26.614Z,100093.13
2022-09-07T08:43:58.022Z,100091.81
2022-09-07T08:46:43.320Z,100084.22
2022-09-07T08:49:35.908Z,100087.56
2022-09-07T08:52:09.959Z,100089.13
2022-09-07T08:54:37.105Z,100084.03
2022-09-07T08:59:56.209Z,100078.84
2022-09-07T09:02:32.645Z,100067.09
2022-09-07T09:05:17.418Z,100058.25
2022-09-07T09:07:50.390Z,100062.09
2022-09-07T09:10:22.914Z,100059.25
2022-09-07T09:13:02.886Z,100060.44
2022-09-07T09:15:32.827Z,100064.34
2022-09-07T09:18:11.190Z,100053.03
2022-09-07T09:20:40.808Z,100056.50
2022-09-07T09:23:12.432Z,100065.06
2022-09-07T09:25:41.647Z,100059.41
2022-09-07T09:28:11.818Z,100056.34
2022-09-07T09:30:38.346Z,100054.19
2022-09-07T09:33:13.892Z,100063.09
2022-09-07T09:35:40.662Z,100054.34
2022-09-07T09:38:30.377Z,100064.28
2022-09-07T09:40:58.197Z,100038.38
2022-09-07T09:43:26.167Z,100044.69
2022-09-07T09:48:41.730Z,100049.69
2022-09-07T09:54:22.418Z,100036.84
2022-09-07T09:56:49.756Z,100047.09
2022-09-07T10:05:20.205Z,100043.50
2022-09-07T10:07:52.019Z,100036.75
2022-09-07T10:10:18.553Z,100043.72
2022-09-07T10:12:46.165Z,100044.50
2022-09-07T10:15:26.678Z,100046.25
2022-09-07T10:17:53.318Z,100039.59
2022-09-07T10:20:22.385Z,100033.50
2022-09-07T10:22:51.777Z,100028.00
2022-09-07T10:25:37.996Z,100035.75
2022-09-07T10:28:04.425Z,100030.72
2022-09-07T10:30:41.643Z,100027.44
2022-09-07T10:33:28.572Z,100029.00
2022-09-07T10:36:07.152Z,100024.25
2022-09-07T10:38:36.947Z,100025.81
2022-09-07T10:41:05.911Z,100014.53
2022-09-07T10:43:42.086Z,100023.00
2022-09-07T10:49:25.179Z,100019.59
2022-09-07T10:51:51.593Z,100025.16
2022-09-07T10:54:31.233Z,100010.16
2022-09-07T10:57:05.774Z,100012.31
2022-09-07T11:00:08.640Z,100012.31
2022-09-07T11:02:35.561Z,100012.81
2022-09-07T11:05:14.006Z,100014.13
2022-09-07T11:07:43.328Z,100000.19
2022-09-07T11:10:15.533Z,100006.06
2022-09-07T11:12:43.740Z,100006.09
2022-09-07T11:15:13.400Z,100000.88
2022-09-07T11:17:53.301Z,99999.91
2022-09-07T11:20:28.640Z,99998.31
2022-09-07T11:23:13.915Z,100000.88
2022-09-07T11:25:58.570Z,99993.41
2022-09-07T11:28:25.049Z,99991.19
2022-09-07T11:31:00.062Z,99989.44
2022-09-07T11:33:31.326Z,99993.72
2022-09-07T11:36:02.801Z,99983.06
2022-09-07T11:38:34.605Z,99982.16
2022-09-07T11:41:12.593Z,99976.44
2022-09-07T11:43:42.698Z,99976.69
2022-09-07T11:46:19.645Z,99973.69
2022-09-07T11:48:50.437Z,99978.63
2022-09-07T11:51:23.611Z,99970.72
2022-09-07T11:53:56.595Z,99969.84
2022-09-07T11:56:45.803Z,99964.50
2022-09-07T11:59:12.368Z,99963.00
2022-09-07T12:01:57.505Z,99959.22
2022-09-07T12:04:30.229Z,99968.28
2022-09-07T12:07:15.238Z,99954.38
2022-09-07T12:09:44.607Z,99954.00
2022-09-07T12:12:24.634Z,99953.75
2022-09-07T12:14:59.986Z,99935.91
2022-09-07T12:17:45.429Z,99936.97
2022-09-07T12:20:14.202Z,99938.41
2022-09-07T12:23:04.811Z,99936.19
2022-09-07T12:25:33.444Z,99936.38
2022-09-07T12:28:00.082Z,99934.88
2022-09-07T12:30:26.521Z,99937.56
2022-09-07T12:32:55.220Z,99934.06
2022-09-07T12:35:31.896Z,99936.06
2022-09-07T12:38:02.376Z,99942.53
2022-09-07T12:40:28.979Z,99935.22
2022-09-07T12:43:13.802Z,99935.75
2022-09-07T12:45:40.308Z,99936.50
2022-09-07T12:48:29.827Z,99933.00
2022-09-07T12:50:56.234Z,99927.19
2022-09-07T12:53:41.421Z,99922.69
2022-09-07T12:56:17.068Z,99918.34
2022-09-07T12:58:51.442Z,99917.25
2022-09-07T13:01:30.628Z,99907.47
2022-09-07T13:04:06.039Z,99912.69
2022-09-07T13:09:30.338Z,99901.72
2022-09-07T13:11:57.382Z,99909.88
2022-09-07T13:14:27.826Z,99903.81
2022-09-07T13:17:16.398Z,99902.91
2022-09-07T13:19:45.940Z,99895.69
2022-09-07T13:22:27.755Z,99896.66
2022-09-07T13:24:55.353Z,99890.88
2022-09-07T13:27:22.651Z,99885.75
2022-09-07T13:30:07.756Z,99893.94
2022-09-07T13:35:22.926Z,99890.38
2022-09-07T13:37:52.130Z,99893.06
2022-09-07T13:40:21.507Z,99884.59
2022-09-07T13:42:48.992Z,99889.22
2022-09-07T13:45:34.398Z,99886.06
2022-09-07T13:48:06.684Z,99891.03
2022-09-07T13:50:33.167Z,99880.91
2022-09-07T13:53:18.347Z,99885.88
2022-09-07T13:55:50.841Z,99887.09
2022-09-07T13:58:37.895Z,99887.09
2022-09-07T14:01:13.399Z,99873.41
2022-09-07T14:03:45.872Z,99883.25
2022-09-07T14:06:21.183Z,99875.56
2022-09-07T14:08:52.103Z,99867.91
2022-09-07T14:11:19.571Z,99877.44
2022-09-07T14:13:46.162Z,99877.66
2022-09-07T14:16:12.705Z,99872.25
2022-09-07T14:18:39.636Z,99876.81
2022-09-07T14:21:09.205Z,99873.25
2022-09-07T14:23:36.788Z,99877.53
2022-09-07T14:26:23.102Z,99876.75
2022-09-07T14:28:51.748Z,99879.09
2022-09-07T14:31:20.013Z,99873.06
2022-09-07T14:34:00.023Z,99873.06
2022-09-07T14:36:47.202Z,99876.56
2022-09-07T14:39:15.673Z,99874.69
2022-09-07T14:41:43.155Z,99867.94
2022-09-07T14:44:28.480Z,99866.56
2022-09-07T14:46:57.093Z,99862.78
2022-09-07T14:49:24.212Z,99865.91
2022-09-07T14:51:52.269Z,99870.91
2022-09-07T14:54:20.905Z,99866.47
2022-09-07T14:57:06.393Z,99867.09
2022-09-07T14:59:38.787Z,99871.09
2022-09-07T15:02:32.203Z,99869.91
2022-09-07T15:05:17.992Z,99865.69
2022-09-07T15:07:48.844Z,99875.13
2022-09-07T15:10:21.069Z,99863.72
2022-09-07T15:12:52.043Z,99871.84
2022-09-07T15:15:18.565Z,99861.34
2022-09-07T15:17:45.909Z,99857.19
2022-09-07T15:20:48.015Z,99861.97
2022-09-07T15:23:17.718Z,99861.53
2022-09-07T15:25:50.502Z,99861.19
2022-09-07T15:34:01.869Z,99853.00
2022-09-07T15:36:28.822Z,99854.06
2022-09-07T15:39:03.383Z,99852.66
2022-09-07T15:41:30.228Z,99845.94
2022-09-07T15:43:57.102Z,99844.91
2022-09-07T15:46:25.109Z,99848.47
2022-09-07T15:48:55.097Z,99842.47
2022-09-07T15:54:13.798Z,99846.66
2022-09-07T15:56:42.392Z,99854.06
2022-09-07T15:59:10.023Z,99842.31
2022-09-07T16:01:52.562Z,99852.38
2022-09-07T16:04:19.807Z,99851.38
2022-09-07T16:06:48.121Z,99846.97
2022-09-07T16:09:15.526Z,99844.84
2022-09-07T16:11:41.979Z,99849.44
2022-09-07T16:14:11.795Z,99851.47
2022-09-07T16:19:24.715Z,99849.94
2022-09-07T16:21:51.187Z,99851.78
2022-09-07T16:24:17.620Z,99854.03
2022-09-07T16:26:44.084Z,99848.34
2022-09-07T16:29:10.568Z,99851.44
2022-09-07T16:31:37.594Z,99858.63
2022-09-07T16:34:04.345Z,99858.41
2022-09-07T16:36:31.060Z,99861.81
2022-09-07T16:38:59.260Z,99855.69
2022-09-07T16:41:29.653Z,99856.59
2022-09-07T16:43:56.475Z,99861.72
2022-09-07T16:46:23.998Z,99859.91
2022-09-07T16:48:51.264Z,99857.53
2022-09-07T16:51:20.537Z,99863.41
2022-09-07T16:53:47.561Z,99853.72
2022-09-07T16:56:16.672Z,99847.19
2022-09-07T16:58:45.027Z,99857.75
2022-09-07T17:01:13.308Z,99860.00
2022-09-07T17:03:40.143Z,99853.84
2022-09-07T17:06:07.756Z,99862.09
2022-09-07T17:08:34.856Z,99858.16
2022-09-07T17:11:04.052Z,99866.38
2022-09-07T17:13:30.938Z,99860.75
2022-09-07T17:16:04.140Z,99865.38
2022-09-07T17:21:17.864Z,99857.13
2022-09-07T17:23:51.910Z,99865.84
2022-09-07T17:26:22.624Z,99862.44
2022-09-07T17:28:50.810Z,99860.97
2022-09-07T17:34:10.242Z,99864.81
2022-09-07T17:36:36.751Z,99866.63
2022-09-07T17:39:19.510Z,99869.06
2022-09-07T17:41:47.695Z,99864.22
2022-09-07T17:44:14.299Z,99874.31
2022-09-07T17:46:40.753Z,99872.03
2022-09-07T17:49:08.819Z,99880.72
2022-09-07T17:51:35.742Z,99881.09
2022-09-07T17:54:03.305Z,99883.78
2022-09-07T17:56:31.087Z,99884.81
2022-09-07T18:00:10.709Z,99880.25
2022-09-07T18:01:44.893Z,99887.28
2022-09-07T18:04:11.466Z,99893.22
2022-09-07T18:06:37.974Z,99897.59
2022-09-07T18:09:05.014Z,99899.41
2022-09-07T18:11:48.774Z,99897.88
2022-09-07T18:14:16.336Z,99906.09
2022-09-07T18:16:44.071Z,99904.91
2022-09-07T18:19:11.146Z,99904.84
2022-09-07T18:21:38.115Z,99911.09
2022-09-07T18:24:07.152Z,99902.25
2022-09-07T18:26:34.941Z,99901.06
2022-09-07T18:29:08.450Z,99910.06
2022-09-07T18:31:40.253Z,99917.66
2022-09-07T18:34:07.723Z,99914.25
2022-09-07T18:36:35.793Z,99914.13
2022-09-07T18:39:04.693Z,99917.41
2022-09-07T18:41:31.590Z,99915.72
2022-09-07T18:43:58.554Z,99922.91
2022-09-07T18:46:25.550Z,99925.06
2022-09-07T18:48:53.953Z,99921.72
2022-09-07T18:51:20.929Z,99920.03
2022-09-07T18:53:47.931Z,99930.47
2022-09-07T18:56:15.524Z,99924.41
2022-09-07T18:58:42.229Z,99933.72
2022-09-07T19:01:11.418Z,99929.53
2022-09-07T19:03:38.728Z,99927.72
2022-09-07T19:06:09.658Z,99930.16
2022-09-07T19:08:37.526Z,99920.63
2022-09-07T19:11:07.856Z,99928.78
2022-09-07T19:13:34.864Z,99931.06
2022-09-07T19:16:05.036Z,99926.22
2022-09-07T19:18:31.764Z,99921.69
2022-09-07T19:21:08.237Z,99928.16
2022-09-07T19:23:35.072Z,99924.59
2022-09-07T19:26:04.327Z,99919.56
2022-09-07T19:28:31.110Z,99918.38
2022-09-07T19:31:17.601Z,99917.19
2022-09-07T19:33:44.132Z,99905.47
2022-09-07T19:36:10.959Z,99909.41
2022-09-07T19:38:37.649Z,99909.56
2022-09-07T19:41:04.163Z,99900.00
2022-09-07T19:43:34.541Z,99907.66
2022-09-07T19:46:01.395Z,99901.44
2022-09-07T19:48:28.076Z,99903.59
2022-09-07T19:51:00.044Z,99895.69
2022-09-07T19:53:26.628Z,99896.66
2022-09-07T19:55:53.108Z,99894.59
2022-09-07T19:58:19.659Z,99896.41
2022-09-07T20:00:46.155Z,99895.22
2022-09-07T20:03:12.685Z,99896.59
2022-09-07T20:05:42.025Z,99895.88
2022-09-07T20:08:08.844Z,99894.91
2022-09-07T20:10:36.133Z,99894.88
2022-09-07T20:13:02.830Z,99902.50
2022-09-07T20:15:29.315Z,99894.97
2022-09-07T20:17:55.774Z,99883.66
2022-09-07T20:20:22.374Z,99887.94
2022-09-07T20:22:48.841Z,99888.88
2022-09-07T20:25:15.338Z,99886.47
2022-09-07T20:27:42.093Z,99885.13
2022-09-07T20:30:08.806Z,99889.22
2022-09-07T20:32:35.290Z,99895.16
2022-09-07T20:35:01.805Z,99901.56
2022-09-07T20:37:28.328Z,99903.09
2022-09-07T20:39:54.860Z,99905.69
2022-09-07T20:42:21.322Z,99906.59
2022-09-07T20:44:47.817Z,99899.69
2022-09-07T20:47:14.269Z,99897.19
2022-09-07T20:49:40.772Z,99898.25
2022-09-07T20:52:07.264Z,99894.28
2022-09-07T20:54:33.980Z,99887.59
2022-09-07T20:57:03.876Z,99898.16
2022-09-07T20:59:30.929Z,99888.75
2022-09-07T21:01:57.469Z,99883.97
2022-09-07T21:04:26.407Z,99886.53
2022-09-07T21:06:53.121Z,99883.63
2022-09-07T21:09:20.154Z,99892.16
2022-09-07T21:11:49.392Z,99887.13
2022-09-07T21:14:17.849Z,99888.41
2022-09-07T21:16:44.485Z,99878.78
2022-09-07T21:19:11.214Z,99885.31
2022-09-07T21:21:39.398Z,99882.56
2022-09-07T21:24:06.728Z,99886.53
2022-09-07T21:26:33.200Z,99883.34
2022-09-07T21:29:01.015Z,99878.63
2022-09-07T21:31:28.289Z,99879.84
2022-09-07T21:33:56.167Z,99885.31
2022-09-07T21:36:23.042Z,99885.91
2022-09-07T21:38:50.100Z,99888.66
2022-09-07T21:41:17.539Z,99884.88
2022-09-07T21:43:44.392Z,99891.41
2022-09-07T21:46:12.239Z,99879.84
2022-09-07T21:48:38.863Z,99880.66
2022-09-07T21:51:05.628Z,99888.06
2022-09-07T21:53:32.140Z,99884.69
2022-09-07T21:55:59.705Z,99873.50
2022-09-07T21:58:27.185Z,99881.50
2022-09-07T22:00:53.856Z,99878.16
2022-09-07T22:03:21.064Z,99876.47
2022-09-07T22:05:47.599Z,99878.63
2022-09-07T22:08:14.516Z,99870.63
2022-09-07T22:10:41.622Z,99876.34
2022-09-07T22:13:08.541Z,99873.59
2022-09-07T22:15:37.672Z,99872.75
2022-09-07T22:18:04.794Z,99875.72
2022-09-07T22:20:32.238Z,99876.34
2022-09-07T22:22:59.185Z,99875.72
2022-09-07T22:25:26.548Z,99863.53
2022-09-07T22:27:53.332Z,99867.38
2022-09-07T22:30:20.136Z,99871.16
2022-09-07T22:32:47.704Z,99869.03
2022-09-07T22:35:14.503Z,99870.09
2022-09-07T22:37:40.960Z,99875.41
2022-09-07T22:40:07.976Z,99869.69
2022-09-07T22:42:34.475Z,99866.56
2022-09-07T22:45:00.955Z,99862.13
2022-09-07T22:47:27.432Z,99865.97
2022-09-07T22:49:54.025Z,99859.84
2022-09-07T22:52:20.487Z,99862.00
2022-09-07T22:54:46.990Z,99856.50
2022-09-07T22:57:13.532Z,99856.13
2022-09-07T22:59:40.039Z,99853.63
2022-09-07T23:02:06.828Z,99849.81
2022-09-07T23:04:33.355Z,99851.50
2022-09-07T23:06:59.929Z,99849.81
2022-09-07T23:09:26.691Z,99849.81
2022-09-07T23:11:53.182Z,99849.81
2022-09-07T23:14:21.871Z,99843.13
2022-09-07T23:16:48.796Z,99846.91
2022-09-07T23:19:16.559Z,99841.06
2022-09-07T23:21:43.735Z,99836.44
2022-09-07T23:24:12.249Z,99843.19
2022-09-07T23:26:38.742Z,99849.97
2022-09-07T23:29:06.102Z,99844.50
2022-09-07T23:31:33.634Z,99841.13
2022-09-07T23:34:01.088Z,99849.97
2022-09-07T23:36:27.712Z,99843.25
2022-09-07T23:38:54.944Z,99843.69
2022-09-07T23:41:21.958Z,99840.38
2022-09-07T23:43:48.487Z,99842.47
2022-09-07T23:46:15.474Z,99837.00
2022-09-07T23:48:45.094Z,99838.69
2022-09-07T23:51:11.987Z,99829.41
2022-09-07T23:53:38.787Z,99824.16
2022-09-07T23:56:05.443Z,99825.22
2022-09-07T23:58:31.896Z,99819.38
